CEB326 RPLL-RPVD
Flight info
| Callsign | CEB326 |
|---|---|
| Flight time | 1h 1m |
| Altitude | 32000 |
| Route | VERDE2V VERDE A461 SAJ W3 IOO B472 NANAS NANAS1W |
| Aircraft | A320/M-SDE3FGHIRWY/LB1 |
Departure
| Time | 2026-04-21 15:00 |
|---|---|
| Airport | Ninoy Aquino International Airport (RPLL) |
Arrival
| Time | 2026-04-21 16:02 |
|---|---|
| Airport | Sibulan Airport (RPVD) |
| Time | Latitude | Longitude | Altitude | Speed | Heading |
|---|---|---|---|---|---|
| 2026-04-21 14:40 | 14.52152 | 121.01048 | 69 ft | 0 kts | 44° |
| 2026-04-21 14:51 | 14.52149 | 121.01045 | 62 ft | 2 kts | 44° |
| 2026-04-21 14:51 | 14.52136 | 121.01032 | 61 ft | 2 kts | 44° |
| 2026-04-21 14:52 | 14.52124 | 121.01020 | 62 ft | 2 kts | 44° |
| 2026-04-21 14:52 | 14.52112 | 121.01007 | 60 ft | 3 kts | 39° |
| 2026-04-21 14:52 | 14.52096 | 121.00999 | 59 ft | 3 kts | 2° |
| 2026-04-21 14:52 | 14.52079 | 121.01001 | 60 ft | 3 kts | 326° |
| 2026-04-21 14:53 | 14.52075 | 121.01004 | 61 ft | 0 kts | 319° |
| 2026-04-21 14:55 | 14.52078 | 121.00999 | 60 ft | 3 kts | 308° |
| 2026-04-21 14:55 | 14.52089 | 121.00970 | 69 ft | 11 kts | 291° |
| 2026-04-21 14:55 | 14.52131 | 121.00897 | 63 ft | 12 kts | 309° |
| 2026-04-21 14:55 | 14.52180 | 121.00843 | 64 ft | 7 kts | 317° |
| 2026-04-21 14:56 | 14.52215 | 121.00809 | 66 ft | 6 kts | 315° |
| 2026-04-21 14:56 | 14.52246 | 121.00781 | 64 ft | 6 kts | 321° |
| 2026-04-21 14:56 | 14.52273 | 121.00752 | 66 ft | 5 kts | 314° |
| 2026-04-21 14:56 | 14.52308 | 121.00715 | 66 ft | 13 kts | 314° |
| 2026-04-21 14:57 | 14.52392 | 121.00626 | 61 ft | 18 kts | 315° |
| 2026-04-21 14:57 | 14.52466 | 121.00552 | 67 ft | 9 kts | 314° |
| 2026-04-21 14:57 | 14.52490 | 121.00502 | 66 ft | 7 kts | 253° |
| 2026-04-21 14:57 | 14.52461 | 121.00465 | 67 ft | 6 kts | 225° |
| 2026-04-21 14:58 | 14.52442 | 121.00446 | 65 ft | 4 kts | 225° |
| 2026-04-21 14:58 | 14.52442 | 121.00445 | 65 ft | 0 kts | 225° |
| 2026-04-21 14:58 | 14.52426 | 121.00428 | 63 ft | 11 kts | 226° |
| 2026-04-21 14:59 | 14.52386 | 121.00396 | 64 ft | 10 kts | 192° |
| 2026-04-21 14:59 | 14.52328 | 121.00437 | 64 ft | 4 kts | 135° |
| 2026-04-21 14:59 | 14.52325 | 121.00440 | 65 ft | 8 kts | 135° |
| 2026-04-21 14:59 | 14.52081 | 121.00695 | 64 ft | 87 kts | 135° |
| 2026-04-21 15:00 | 14.51509 | 121.01289 | 65 ft | 144 kts | 135° |
| 2026-04-21 15:00 | 14.50735 | 121.02065 | 482 ft | 161 kts | 136° |
| 2026-04-21 15:00 | 14.49986 | 121.02908 | 1255 ft | 158 kts | 129° |
| 2026-04-21 15:00 | 14.49237 | 121.03752 | 1897 ft | 166 kts | 129° |
| 2026-04-21 15:01 | 14.48400 | 121.04681 | 2221 ft | 188 kts | 129° |
| 2026-04-21 15:01 | 14.47444 | 121.05730 | 2536 ft | 213 kts | 130° |
| 2026-04-21 15:01 | 14.46372 | 121.06906 | 2952 ft | 237 kts | 130° |
| 2026-04-21 15:01 | 14.45187 | 121.08194 | 3518 ft | 255 kts | 135° |
| 2026-04-21 15:02 | 14.43615 | 121.09114 | 4326 ft | 268 kts | 162° |
| 2026-04-21 15:02 | 14.41754 | 121.09233 | 5201 ft | 275 kts | 182° |
| 2026-04-21 15:02 | 14.39834 | 121.09104 | 6139 ft | 278 kts | 182° |
| 2026-04-21 15:02 | 14.37886 | 121.08967 | 6991 ft | 283 kts | 182° |
| 2026-04-21 15:03 | 14.35901 | 121.08829 | 7817 ft | 288 kts | 181° |
| 2026-04-21 15:03 | 14.33893 | 121.08693 | 8666 ft | 292 kts | 181° |
| 2026-04-21 15:03 | 14.31852 | 121.08556 | 9513 ft | 296 kts | 181° |
| 2026-04-21 15:03 | 14.29781 | 121.08418 | 10247 ft | 303 kts | 181° |
| 2026-04-21 15:04 | 14.27595 | 121.08278 | 10527 ft | 326 kts | 181° |
| 2026-04-21 15:04 | 14.25275 | 121.08128 | 11008 ft | 339 kts | 181° |
| 2026-04-21 15:04 | 14.22902 | 121.07972 | 11693 ft | 344 kts | 181° |
| 2026-04-21 15:04 | 14.20496 | 121.07813 | 12419 ft | 348 kts | 182° |
| 2026-04-21 15:05 | 14.18066 | 121.07650 | 13143 ft | 352 kts | 182° |
| 2026-04-21 15:05 | 14.13137 | 121.07316 | 14444 ft | 358 kts | 183° |
| 2026-04-21 15:05 | 14.10641 | 121.07151 | 15051 ft | 361 kts | 183° |
| 2026-04-21 15:06 | 14.08124 | 121.06985 | 15647 ft | 364 kts | 183° |
| 2026-04-21 15:06 | 14.05584 | 121.06817 | 16241 ft | 367 kts | 183° |
| 2026-04-21 15:06 | 14.03026 | 121.06648 | 16840 ft | 370 kts | 183° |
| 2026-04-21 15:06 | 14.00443 | 121.06480 | 17423 ft | 373 kts | 183° |
| 2026-04-21 15:07 | 13.97840 | 121.06309 | 17991 ft | 377 kts | 184° |
| 2026-04-21 15:07 | 13.95216 | 121.06134 | 18519 ft | 379 kts | 184° |
| 2026-04-21 15:07 | 13.92572 | 121.05957 | 19031 ft | 381 kts | 184° |
| 2026-04-21 15:07 | 13.89917 | 121.05781 | 19527 ft | 384 kts | 184° |
| 2026-04-21 15:08 | 13.87242 | 121.05605 | 19854 ft | 386 kts | 184° |
| 2026-04-21 15:08 | 13.84563 | 121.05430 | 19937 ft | 385 kts | 184° |
| 2026-04-21 15:08 | 13.81886 | 121.05257 | 19958 ft | 385 kts | 184° |
| 2026-04-21 15:08 | 13.79211 | 121.05083 | 19955 ft | 385 kts | 184° |
| 2026-04-21 15:09 | 13.76542 | 121.04909 | 19957 ft | 384 kts | 184° |
| 2026-04-21 15:09 | 13.73874 | 121.04732 | 19959 ft | 384 kts | 184° |
| 2026-04-21 15:09 | 13.71206 | 121.04552 | 19958 ft | 384 kts | 184° |
| 2026-04-21 15:09 | 13.68542 | 121.04374 | 19957 ft | 384 kts | 184° |
| 2026-04-21 15:10 | 13.65876 | 121.04197 | 19956 ft | 384 kts | 184° |
| 2026-04-21 15:10 | 13.63214 | 121.04023 | 19959 ft | 383 kts | 184° |
| 2026-04-21 15:10 | 13.60553 | 121.03848 | 19960 ft | 383 kts | 184° |
| 2026-04-21 15:10 | 13.57895 | 121.03674 | 19962 ft | 383 kts | 184° |
| 2026-04-21 15:11 | 13.55236 | 121.03500 | 19964 ft | 382 kts | 184° |
| 2026-04-21 15:11 | 13.52583 | 121.03326 | 20005 ft | 384 kts | 184° |
| 2026-04-21 15:11 | 13.49905 | 121.03160 | 20499 ft | 386 kts | 183° |
| 2026-04-21 15:11 | 13.47211 | 121.03090 | 21003 ft | 389 kts | 181° |
| 2026-04-21 15:12 | 13.44531 | 121.03107 | 21484 ft | 391 kts | 180° |
| 2026-04-21 15:12 | 13.41766 | 121.03168 | 21963 ft | 394 kts | 179° |
| 2026-04-21 15:12 | 13.39057 | 121.03239 | 22430 ft | 396 kts | 180° |
| 2026-04-21 15:12 | 13.36299 | 121.03303 | 22905 ft | 398 kts | 180° |
| 2026-04-21 15:13 | 13.33522 | 121.03354 | 23364 ft | 400 kts | 180° |
| 2026-04-21 15:13 | 13.30729 | 121.03394 | 23748 ft | 402 kts | 181° |
| 2026-04-21 15:13 | 13.27924 | 121.03424 | 24123 ft | 404 kts | 181° |
| 2026-04-21 15:13 | 13.25106 | 121.03447 | 24475 ft | 407 kts | 181° |
| 2026-04-21 15:14 | 13.22265 | 121.03467 | 24834 ft | 409 kts | 181° |
| 2026-04-21 15:14 | 13.19412 | 121.03489 | 25196 ft | 411 kts | 181° |
| 2026-04-21 15:14 | 13.16544 | 121.03514 | 25561 ft | 414 kts | 181° |
| 2026-04-21 15:14 | 13.13662 | 121.03707 | 25921 ft | 418 kts | 170° |
| 2026-04-21 15:15 | 13.10900 | 121.04670 | 26254 ft | 424 kts | 154° |
| 2026-04-21 15:15 | 13.08351 | 121.06229 | 26593 ft | 428 kts | 150° |
| 2026-04-21 15:15 | 13.05819 | 121.07848 | 26944 ft | 430 kts | 149° |
| 2026-04-21 15:15 | 13.03279 | 121.09491 | 27290 ft | 433 kts | 149° |
| 2026-04-21 15:16 | 13.00726 | 121.11144 | 27638 ft | 435 kts | 149° |
| 2026-04-21 15:16 | 12.98161 | 121.12805 | 27967 ft | 438 kts | 149° |
| 2026-04-21 15:16 | 12.95579 | 121.14474 | 28314 ft | 440 kts | 149° |
| 2026-04-21 15:16 | 12.92983 | 121.16146 | 28650 ft | 442 kts | 149° |
| 2026-04-21 15:17 | 12.90369 | 121.17825 | 28994 ft | 445 kts | 150° |
| 2026-04-21 15:17 | 12.87740 | 121.19509 | 29323 ft | 447 kts | 150° |
| 2026-04-21 15:17 | 12.85091 | 121.21201 | 29656 ft | 449 kts | 150° |
| 2026-04-21 15:17 | 12.82437 | 121.22898 | 29968 ft | 451 kts | 150° |
| 2026-04-21 15:18 | 12.79766 | 121.24607 | 30238 ft | 454 kts | 150° |
| 2026-04-21 15:18 | 12.77093 | 121.26318 | 30486 ft | 456 kts | 150° |
| 2026-04-21 15:18 | 12.74388 | 121.28047 | 30733 ft | 458 kts | 150° |
| 2026-04-21 15:18 | 12.71680 | 121.29778 | 30917 ft | 459 kts | 150° |
| 2026-04-21 15:19 | 12.68991 | 121.31499 | 30956 ft | 448 kts | 150° |
| 2026-04-21 15:19 | 12.66401 | 121.33162 | 30968 ft | 433 kts | 149° |
| 2026-04-21 15:19 | 12.61365 | 121.36388 | 30964 ft | 424 kts | 150° |
| 2026-04-21 15:20 | 12.56367 | 121.39579 | 30955 ft | 423 kts | 150° |
| 2026-04-21 15:20 | 12.51379 | 121.42762 | 30946 ft | 422 kts | 150° |
| 2026-04-21 15:21 | 12.46395 | 121.45945 | 30950 ft | 422 kts | 150° |
| 2026-04-21 15:21 | 12.41417 | 121.49124 | 30941 ft | 422 kts | 150° |
| 2026-04-21 15:22 | 12.36443 | 121.52299 | 30937 ft | 421 kts | 150° |
| 2026-04-21 15:22 | 12.31502 | 121.55456 | 30930 ft | 421 kts | 150° |
| 2026-04-21 15:23 | 12.26501 | 121.58644 | 30925 ft | 421 kts | 150° |
| 2026-04-21 15:23 | 12.21535 | 121.61804 | 30923 ft | 420 kts | 150° |
| 2026-04-21 15:24 | 12.16605 | 121.64943 | 30924 ft | 420 kts | 150° |
| 2026-04-21 15:24 | 12.11646 | 121.68104 | 30922 ft | 420 kts | 149° |
| 2026-04-21 15:25 | 12.06683 | 121.71268 | 30924 ft | 420 kts | 149° |
| 2026-04-21 15:25 | 12.01721 | 121.74420 | 30913 ft | 420 kts | 149° |
| 2026-04-21 15:26 | 11.96759 | 121.77568 | 30919 ft | 420 kts | 149° |
| 2026-04-21 15:26 | 11.91808 | 121.80719 | 30919 ft | 419 kts | 149° |
| 2026-04-21 15:27 | 11.86855 | 121.83865 | 30923 ft | 419 kts | 149° |
| 2026-04-21 15:27 | 11.81908 | 121.87013 | 30916 ft | 419 kts | 149° |
| 2026-04-21 15:28 | 11.76958 | 121.90155 | 30920 ft | 419 kts | 149° |
| 2026-04-21 15:28 | 11.72011 | 121.93293 | 30920 ft | 419 kts | 149° |
| 2026-04-21 15:29 | 11.67059 | 121.96429 | 30924 ft | 419 kts | 149° |
| 2026-04-21 15:29 | 11.62115 | 121.99569 | 30920 ft | 419 kts | 149° |
| 2026-04-21 15:30 | 11.57168 | 122.02713 | 30924 ft | 418 kts | 150° |
| 2026-04-21 15:30 | 11.52222 | 122.05835 | 30926 ft | 418 kts | 150° |
| 2026-04-21 15:31 | 11.47280 | 122.08954 | 30929 ft | 418 kts | 150° |
| 2026-04-21 15:31 | 11.42346 | 122.12081 | 30939 ft | 417 kts | 150° |
| 2026-04-21 15:32 | 11.37419 | 122.15206 | 30936 ft | 417 kts | 150° |
| 2026-04-21 15:32 | 11.32497 | 122.18327 | 30939 ft | 416 kts | 150° |
| 2026-04-21 15:33 | 11.27574 | 122.21439 | 30941 ft | 416 kts | 150° |
| 2026-04-21 15:33 | 11.22653 | 122.24540 | 30937 ft | 416 kts | 150° |
| 2026-04-21 15:34 | 11.17731 | 122.27644 | 30942 ft | 416 kts | 150° |
| 2026-04-21 15:34 | 11.12812 | 122.30749 | 30939 ft | 416 kts | 149° |
| 2026-04-21 15:35 | 11.07888 | 122.33855 | 30936 ft | 416 kts | 149° |
| 2026-04-21 15:35 | 11.02997 | 122.36948 | 30937 ft | 417 kts | 149° |
| 2026-04-21 15:36 | 10.98074 | 122.40060 | 30739 ft | 415 kts | 149° |
| 2026-04-21 15:36 | 10.95637 | 122.41595 | 30353 ft | 409 kts | 149° |
| 2026-04-21 15:36 | 10.93225 | 122.43111 | 30094 ft | 407 kts | 149° |
| 2026-04-21 15:37 | 10.90818 | 122.44624 | 29845 ft | 406 kts | 149° |
| 2026-04-21 15:37 | 10.88423 | 122.46133 | 29579 ft | 404 kts | 149° |
| 2026-04-21 15:37 | 10.86043 | 122.47635 | 29313 ft | 403 kts | 149° |
| 2026-04-21 15:37 | 10.83652 | 122.49119 | 29052 ft | 401 kts | 152° |
| 2026-04-21 15:38 | 10.81148 | 122.50351 | 28788 ft | 399 kts | 156° |
| 2026-04-21 15:38 | 10.78636 | 122.51535 | 28531 ft | 397 kts | 155° |
| 2026-04-21 15:38 | 10.76138 | 122.52715 | 28274 ft | 395 kts | 155° |
| 2026-04-21 15:38 | 10.73646 | 122.53894 | 28020 ft | 394 kts | 155° |
| 2026-04-21 15:39 | 10.71171 | 122.55065 | 27769 ft | 392 kts | 155° |
| 2026-04-21 15:39 | 10.68706 | 122.56230 | 27521 ft | 390 kts | 155° |
| 2026-04-21 15:39 | 10.66243 | 122.57395 | 27271 ft | 388 kts | 155° |
| 2026-04-21 15:39 | 10.63793 | 122.58555 | 27028 ft | 387 kts | 155° |
| 2026-04-21 15:40 | 10.61387 | 122.59695 | 26788 ft | 385 kts | 155° |
| 2026-04-21 15:40 | 10.58958 | 122.60845 | 26557 ft | 384 kts | 155° |
| 2026-04-21 15:40 | 10.56545 | 122.61987 | 26311 ft | 382 kts | 155° |
| 2026-04-21 15:40 | 10.54134 | 122.63128 | 26076 ft | 381 kts | 155° |
| 2026-04-21 15:41 | 10.51729 | 122.64263 | 25838 ft | 380 kts | 155° |
| 2026-04-21 15:41 | 10.49336 | 122.65391 | 25608 ft | 378 kts | 155° |
| 2026-04-21 15:41 | 10.47757 | 122.66136 | 25454 ft | 378 kts | 155° |
| 2026-04-21 15:41 | 10.45374 | 122.67260 | 25228 ft | 377 kts | 155° |
| 2026-04-21 15:42 | 10.42201 | 122.68760 | 24927 ft | 375 kts | 155° |
| 2026-04-21 15:42 | 10.40637 | 122.69499 | 24779 ft | 374 kts | 155° |
| 2026-04-21 15:42 | 10.38278 | 122.70614 | 24554 ft | 373 kts | 155° |
| 2026-04-21 15:42 | 10.35927 | 122.71724 | 24340 ft | 372 kts | 155° |
| 2026-04-21 15:43 | 10.33583 | 122.72831 | 24118 ft | 371 kts | 155° |
| 2026-04-21 15:43 | 10.31241 | 122.73935 | 23895 ft | 370 kts | 155° |
| 2026-04-21 15:43 | 10.28910 | 122.75034 | 23686 ft | 369 kts | 155° |
| 2026-04-21 15:43 | 10.26749 | 122.76051 | 23480 ft | 368 kts | 155° |
| 2026-04-21 15:44 | 10.24432 | 122.77140 | 23233 ft | 366 kts | 155° |
| 2026-04-21 15:44 | 10.22128 | 122.78225 | 22976 ft | 364 kts | 155° |
| 2026-04-21 15:44 | 10.19834 | 122.79307 | 22724 ft | 363 kts | 155° |
| 2026-04-21 15:44 | 10.17543 | 122.80388 | 22469 ft | 362 kts | 155° |
| 2026-04-21 15:45 | 10.15267 | 122.81462 | 22216 ft | 360 kts | 155° |
| 2026-04-21 15:45 | 10.12998 | 122.82528 | 21973 ft | 359 kts | 155° |
| 2026-04-21 15:45 | 10.10732 | 122.83591 | 21725 ft | 358 kts | 155° |
| 2026-04-21 15:45 | 10.08475 | 122.84653 | 21489 ft | 357 kts | 155° |
| 2026-04-21 15:46 | 10.06231 | 122.85711 | 21244 ft | 356 kts | 155° |
| 2026-04-21 15:46 | 10.03991 | 122.86769 | 21004 ft | 354 kts | 155° |
| 2026-04-21 15:46 | 10.01787 | 122.87809 | 20767 ft | 353 kts | 155° |
| 2026-04-21 15:46 | 9.99563 | 122.88855 | 20536 ft | 351 kts | 155° |
| 2026-04-21 15:47 | 9.97347 | 122.89896 | 20300 ft | 350 kts | 155° |
| 2026-04-21 15:47 | 9.95156 | 122.90925 | 20020 ft | 345 kts | 155° |
| 2026-04-21 15:47 | 9.92980 | 122.91949 | 19608 ft | 344 kts | 155° |
| 2026-04-21 15:47 | 9.90807 | 122.92973 | 19184 ft | 344 kts | 155° |
| 2026-04-21 15:48 | 9.88639 | 122.93994 | 18757 ft | 344 kts | 156° |
| 2026-04-21 15:48 | 9.86470 | 122.95013 | 18330 ft | 343 kts | 156° |
| 2026-04-21 15:48 | 9.84301 | 122.96031 | 17863 ft | 343 kts | 156° |
| 2026-04-21 15:48 | 9.82137 | 122.97048 | 17436 ft | 341 kts | 156° |
| 2026-04-21 15:49 | 9.80050 | 122.98179 | 17020 ft | 341 kts | 146° |
| 2026-04-21 15:49 | 9.78261 | 122.99758 | 16607 ft | 341 kts | 134° |
| 2026-04-21 15:49 | 9.76835 | 123.01683 | 16196 ft | 342 kts | 126° |
| 2026-04-21 15:49 | 9.75494 | 123.03622 | 15935 ft | 337 kts | 127° |
| 2026-04-21 15:50 | 9.74148 | 123.05557 | 15866 ft | 336 kts | 127° |
| 2026-04-21 15:50 | 9.72781 | 123.07512 | 15157 ft | 346 kts | 127° |
| 2026-04-21 15:50 | 9.71374 | 123.09522 | 14588 ft | 352 kts | 127° |
| 2026-04-21 15:50 | 9.69962 | 123.11547 | 14152 ft | 352 kts | 127° |
| 2026-04-21 15:51 | 9.68555 | 123.13572 | 13782 ft | 349 kts | 127° |
| 2026-04-21 15:51 | 9.67183 | 123.15555 | 13274 ft | 338 kts | 127° |
| 2026-04-21 15:51 | 9.65861 | 123.17469 | 12877 ft | 328 kts | 127° |
| 2026-04-21 15:51 | 9.64553 | 123.19356 | 12474 ft | 327 kts | 127° |
| 2026-04-21 15:52 | 9.63242 | 123.21238 | 12068 ft | 326 kts | 127° |
| 2026-04-21 15:52 | 9.61932 | 123.23113 | 11662 ft | 325 kts | 127° |
| 2026-04-21 15:52 | 9.60627 | 123.24984 | 11248 ft | 324 kts | 127° |
| 2026-04-21 15:52 | 9.59329 | 123.26844 | 10919 ft | 321 kts | 127° |
| 2026-04-21 15:53 | 9.58067 | 123.28649 | 10741 ft | 307 kts | 126° |
| 2026-04-21 15:53 | 9.56847 | 123.30397 | 10184 ft | 301 kts | 126° |
| 2026-04-21 15:53 | 9.55654 | 123.32112 | 9714 ft | 293 kts | 126° |
| 2026-04-21 15:53 | 9.54484 | 123.33792 | 9274 ft | 292 kts | 126° |
| 2026-04-21 15:54 | 9.53311 | 123.35470 | 8888 ft | 291 kts | 125° |
| 2026-04-21 15:54 | 9.52146 | 123.37137 | 8538 ft | 289 kts | 125° |
| 2026-04-21 15:54 | 9.50990 | 123.38793 | 8191 ft | 285 kts | 124° |
| 2026-04-21 15:54 | 9.49857 | 123.40417 | 7690 ft | 279 kts | 124° |
| 2026-04-21 15:55 | 9.48766 | 123.41977 | 7238 ft | 271 kts | 124° |
| 2026-04-21 15:55 | 9.47679 | 123.43530 | 6841 ft | 271 kts | 124° |
| 2026-04-21 15:55 | 9.46592 | 123.45089 | 6422 ft | 271 kts | 123° |
| 2026-04-21 15:55 | 9.45502 | 123.46653 | 5983 ft | 271 kts | 123° |
| 2026-04-21 15:56 | 9.44412 | 123.48215 | 5512 ft | 272 kts | 123° |
| 2026-04-21 15:56 | 9.43320 | 123.49770 | 5138 ft | 270 kts | 123° |
| 2026-04-21 15:56 | 9.42215 | 123.51305 | 4767 ft | 267 kts | 128° |
| 2026-04-21 15:56 | 9.40760 | 123.52443 | 4178 ft | 268 kts | 154° |
| 2026-04-21 15:57 | 9.38933 | 123.52778 | 3638 ft | 271 kts | 180° |
| 2026-04-21 15:57 | 9.37103 | 123.52243 | 3148 ft | 279 kts | 205° |
| 2026-04-21 15:57 | 9.35384 | 123.51333 | 2989 ft | 278 kts | 205° |
| 2026-04-21 15:57 | 9.33819 | 123.50264 | 2860 ft | 267 kts | 225° |
| 2026-04-21 15:58 | 9.32822 | 123.48745 | 2738 ft | 255 kts | 249° |
| 2026-04-21 15:58 | 9.32487 | 123.47026 | 2483 ft | 249 kts | 273° |
| 2026-04-21 15:58 | 9.32578 | 123.45284 | 2231 ft | 241 kts | 276° |
| 2026-04-21 15:58 | 9.32669 | 123.43679 | 2149 ft | 219 kts | 276° |
| 2026-04-21 15:59 | 9.32752 | 123.42175 | 2073 ft | 205 kts | 276° |
| 2026-04-21 15:59 | 9.32824 | 123.40832 | 1966 ft | 181 kts | 275° |
| 2026-04-21 15:59 | 9.32891 | 123.39615 | 1732 ft | 166 kts | 275° |
| 2026-04-21 15:59 | 9.32951 | 123.38493 | 1492 ft | 153 kts | 277° |
| 2026-04-21 16:00 | 9.33007 | 123.37434 | 1283 ft | 150 kts | 277° |
| 2026-04-21 16:00 | 9.33066 | 123.36387 | 1097 ft | 146 kts | 276° |
| 2026-04-21 16:00 | 9.33122 | 123.35384 | 904 ft | 144 kts | 276° |
| 2026-04-21 16:00 | 9.33179 | 123.34369 | 700 ft | 144 kts | 274° |
| 2026-04-21 16:01 | 9.33235 | 123.33364 | 511 ft | 143 kts | 275° |
| 2026-04-21 16:01 | 9.33292 | 123.32370 | 310 ft | 140 kts | 275° |
| 2026-04-21 16:01 | 9.33353 | 123.31392 | 116 ft | 138 kts | 275° |
| 2026-04-21 16:01 | 9.33404 | 123.30451 | 28 ft | 117 kts | 273° |
| 2026-04-21 16:02 | 9.33435 | 123.29938 | 37 ft | 29 kts | 272° |
| 2026-04-21 16:02 | 9.33441 | 123.29770 | 40 ft | 24 kts | 271° |
| 2026-04-21 16:02 | 9.33425 | 123.29706 | 40 ft | 5 kts | 198° |
| 2026-04-21 16:02 | 9.33367 | 123.29659 | 43 ft | 9 kts | 259° |
| 2026-04-21 16:03 | 9.33368 | 123.29650 | 44 ft | 0 kts | 272° |
| 2026-04-21 16:03 | 9.33350 | 123.29619 | 45 ft | 12 kts | 217° |
| 2026-04-21 16:03 | 9.33322 | 123.29624 | 43 ft | 0 kts | 154° |